sensor_id;sensor_type;location;lat;lon;timestamp;P1;durP1;ratioP1;P2;durP2;ratioP2
18606;SDS011;9433;42.678;23.360;2022-09-12T00:01:40;3.20;;;2.90;;
18606;SDS011;9433;42.678;23.360;2022-09-12T00:04:08;2.80;;;2.60;;
18606;SDS011;9433;42.678;23.360;2022-09-12T00:06:37;2.93;;;2.73;;
18606;SDS011;9433;42.678;23.360;2022-09-12T00:09:05;4.23;;;3.37;;
18606;SDS011;9433;42.678;23.360;2022-09-12T00:11:33;3.10;;;2.80;;
18606;SDS011;9433;42.678;23.360;2022-09-12T00:14:01;3.13;;;2.83;;
18606;SDS011;9433;42.678;23.360;2022-09-12T00:16:28;3.53;;;3.23;;
18606;SDS011;9433;42.678;23.360;2022-09-12T00:18:57;3.30;;;3.10;;
18606;SDS011;9433;42.678;23.360;2022-09-12T00:21:24;3.80;;;3.50;;
18606;SDS011;9433;42.678;23.360;2022-09-12T00:23:52;3.53;;;3.23;;
18606;SDS011;9433;42.678;23.360;2022-09-12T00:26:20;4.43;;;3.60;;
18606;SDS011;9433;42.678;23.360;2022-09-12T00:28:47;4.50;;;3.70;;
18606;SDS011;9433;42.678;23.360;2022-09-12T00:31:15;4.23;;;3.83;;
18606;SDS011;9433;42.678;23.360;2022-09-12T00:33:44;3.50;;;3.20;;
18606;SDS011;9433;42.678;23.360;2022-09-12T00:36:12;3.77;;;3.20;;
18606;SDS011;9433;42.678;23.360;2022-09-12T00:38:41;3.37;;;3.10;;
18606;SDS011;9433;42.678;23.360;2022-09-12T00:43:42;6.13;;;3.97;;
18606;SDS011;9433;42.678;23.360;2022-09-12T00:46:12;6.60;;;3.20;;
18606;SDS011;9433;42.678;23.360;2022-09-12T00:48:50;3.13;;;2.93;;
18606;SDS011;9433;42.678;23.360;2022-09-12T00:51:20;4.23;;;3.50;;
18606;SDS011;9433;42.678;23.360;2022-09-12T00:53:51;2.70;;;2.50;;
18606;SDS011;9433;42.678;23.360;2022-09-12T00:56:22;2.60;;;2.40;;
18606;SDS011;9433;42.678;23.360;2022-09-12T00:58:50;3.83;;;3.33;;
18606;SDS011;9433;42.678;23.360;2022-09-12T01:01:21;3.00;;;2.80;;
18606;SDS011;9433;42.678;23.360;2022-09-12T01:03:47;2.80;;;2.60;;
18606;SDS011;9433;42.678;23.360;2022-09-12T01:06:15;2.97;;;2.57;;
18606;SDS011;9433;42.678;23.360;2022-09-12T01:08:46;3.20;;;2.90;;
18606;SDS011;9433;42.678;23.360;2022-09-12T01:11:14;3.30;;;2.90;;
18606;SDS011;9433;42.678;23.360;2022-09-12T01:13:43;3.03;;;2.83;;
18606;SDS011;9433;42.678;23.360;2022-09-12T01:16:11;3.33;;;3.10;;
18606;SDS011;9433;42.678;23.360;2022-09-12T01:18:42;4.13;;;3.00;;
18606;SDS011;9433;42.678;23.360;2022-09-12T01:21:17;2.90;;;2.57;;
18606;SDS011;9433;42.678;23.360;2022-09-12T01:30:20;2.70;;;2.50;;
18606;SDS011;9433;42.678;23.360;2022-09-12T01:33:09;2.87;;;2.67;;
18606;SDS011;9433;42.678;23.360;2022-09-12T01:36:04;3.13;;;2.80;;
18606;SDS011;9433;42.678;23.360;2022-09-12T01:38:45;3.13;;;2.80;;
18606;SDS011;9433;42.678;23.360;2022-09-12T01:41:18;3.40;;;3.10;;
18606;SDS011;9433;42.678;23.360;2022-09-12T01:43:50;3.03;;;2.77;;
18606;SDS011;9433;42.678;23.360;2022-09-12T01:46:26;3.07;;;2.77;;
18606;SDS011;9433;42.678;23.360;2022-09-12T01:48:59;3.17;;;2.50;;
18606;SDS011;9433;42.678;23.360;2022-09-12T01:51:32;2.83;;;2.63;;
18606;SDS011;9433;42.678;23.360;2022-09-12T01:54:05;3.17;;;2.87;;
18606;SDS011;9433;42.678;23.360;2022-09-12T01:56:34;2.73;;;2.43;;
18606;SDS011;9433;42.678;23.360;2022-09-12T01:59:07;2.60;;;2.40;;
18606;SDS011;9433;42.678;23.360;2022-09-12T02:01:39;3.03;;;2.73;;
18606;SDS011;9433;42.678;23.360;2022-09-12T02:04:12;4.13;;;3.03;;
18606;SDS011;9433;42.678;23.360;2022-09-12T02:06:45;2.60;;;2.40;;
18606;SDS011;9433;42.678;23.360;2022-09-12T02:09:18;2.63;;;2.43;;
18606;SDS011;9433;42.678;23.360;2022-09-12T02:11:49;2.30;;;2.00;;
18606;SDS011;9433;42.678;23.360;2022-09-12T02:14:20;2.60;;;2.40;;
18606;SDS011;9433;42.678;23.360;2022-09-12T02:16:51;6.47;;;2.90;;
18606;SDS011;9433;42.678;23.360;2022-09-12T02:19:22;2.40;;;2.20;;
18606;SDS011;9433;42.678;23.360;2022-09-12T02:21:53;2.77;;;2.57;;
18606;SDS011;9433;42.678;23.360;2022-09-12T02:24:24;2.40;;;2.20;;
18606;SDS011;9433;42.678;23.360;2022-09-12T02:26:56;3.30;;;2.10;;
18606;SDS011;9433;42.678;23.360;2022-09-12T02:29:26;2.90;;;2.37;;
18606;SDS011;9433;42.678;23.360;2022-09-12T02:31:56;2.53;;;2.33;;
18606;SDS011;9433;42.678;23.360;2022-09-12T02:34:26;2.70;;;2.50;;
18606;SDS011;9433;42.678;23.360;2022-09-12T02:37:05;2.90;;;2.53;;
18606;SDS011;9433;42.678;23.360;2022-09-12T02:39:37;2.87;;;2.53;;
18606;SDS011;9433;42.678;23.360;2022-09-12T02:42:04;2.40;;;2.20;;
18606;SDS011;9433;42.678;23.360;2022-09-12T02:44:31;3.43;;;2.57;;
18606;SDS011;9433;42.678;23.360;2022-09-12T02:47:03;2.43;;;2.23;;
18606;SDS011;9433;42.678;23.360;2022-09-12T02:49:33;4.00;;;2.23;;
18606;SDS011;9433;42.678;23.360;2022-09-12T02:52:00;2.73;;;2.53;;
18606;SDS011;9433;42.678;23.360;2022-09-12T02:54:28;2.63;;;2.10;;
18606;SDS011;9433;42.678;23.360;2022-09-12T02:56:56;2.20;;;2.00;;
18606;SDS011;9433;42.678;23.360;2022-09-12T02:59:23;2.30;;;2.07;;
18606;SDS011;9433;42.678;23.360;2022-09-12T03:01:58;2.17;;;2.00;;
18606;SDS011;9433;42.678;23.360;2022-09-12T03:04:41;2.73;;;2.40;;
18606;SDS011;9433;42.678;23.360;2022-09-12T03:07:20;2.40;;;2.20;;
18606;SDS011;9433;42.678;23.360;2022-09-12T03:09:59;2.77;;;2.57;;
18606;SDS011;9433;42.678;23.360;2022-09-12T03:12:37;2.63;;;2.47;;
18606;SDS011;9433;42.678;23.360;2022-09-12T03:15:18;2.80;;;2.60;;
18606;SDS011;9433;42.678;23.360;2022-09-12T03:18:00;3.40;;;2.43;;
18606;SDS011;9433;42.678;23.360;2022-09-12T03:20:41;3.03;;;2.57;;
18606;SDS011;9433;42.678;23.360;2022-09-12T03:23:17;2.83;;;2.57;;
18606;SDS011;9433;42.678;23.360;2022-09-12T03:25:53;2.93;;;2.73;;
18606;SDS011;9433;42.678;23.360;2022-09-12T03:28:24;2.30;;;2.10;;
18606;SDS011;9433;42.678;23.360;2022-09-12T03:30:51;3.17;;;2.47;;
18606;SDS011;9433;42.678;23.360;2022-09-12T03:33:22;3.63;;;3.10;;
18606;SDS011;9433;42.678;23.360;2022-09-12T03:35:50;3.07;;;2.83;;
18606;SDS011;9433;42.678;23.360;2022-09-12T03:38:19;2.87;;;2.57;;
18606;SDS011;9433;42.678;23.360;2022-09-12T03:40:46;3.63;;;3.03;;
18606;SDS011;9433;42.678;23.360;2022-09-12T03:43:13;3.13;;;2.83;;
18606;SDS011;9433;42.678;23.360;2022-09-12T03:45:39;3.40;;;3.10;;
18606;SDS011;9433;42.678;23.360;2022-09-12T03:48:06;2.90;;;2.70;;
18606;SDS011;9433;42.678;23.360;2022-09-12T03:50:35;2.90;;;2.43;;
18606;SDS011;9433;42.678;23.360;2022-09-12T03:53:02;3.00;;;2.70;;
18606;SDS011;9433;42.678;23.360;2022-09-12T03:55:29;3.00;;;2.70;;
18606;SDS011;9433;42.678;23.360;2022-09-12T03:57:56;2.83;;;2.63;;
18606;SDS011;9433;42.678;23.360;2022-09-12T04:00:23;3.13;;;2.80;;
18606;SDS011;9433;42.678;23.360;2022-09-12T04:02:54;3.33;;;3.03;;
18606;SDS011;9433;42.678;23.360;2022-09-12T04:05:22;3.63;;;3.00;;
18606;SDS011;9433;42.678;23.360;2022-09-12T04:07:51;3.20;;;2.90;;
18606;SDS011;9433;42.678;23.360;2022-09-12T04:10:18;3.43;;;3.13;;
18606;SDS011;9433;42.678;23.360;2022-09-12T04:12:45;2.97;;;2.70;;
18606;SDS011;9433;42.678;23.360;2022-09-12T04:15:11;3.37;;;3.07;;
18606;SDS011;9433;42.678;23.360;2022-09-12T04:17:38;4.90;;;2.97;;
18606;SDS011;9433;42.678;23.360;2022-09-12T04:20:05;3.23;;;2.77;;
18606;SDS011;9433;42.678;23.360;2022-09-12T04:22:33;2.90;;;2.60;;
18606;SDS011;9433;42.678;23.360;2022-09-12T04:25:01;3.67;;;2.60;;
18606;SDS011;9433;42.678;23.360;2022-09-12T04:27:29;3.20;;;2.90;;
18606;SDS011;9433;42.678;23.360;2022-09-12T04:29:56;2.87;;;2.57;;
18606;SDS011;9433;42.678;23.360;2022-09-12T04:32:24;2.63;;;2.43;;
18606;SDS011;9433;42.678;23.360;2022-09-12T04:34:51;4.40;;;2.80;;
18606;SDS011;9433;42.678;23.360;2022-09-12T04:37:19;3.30;;;3.10;;
18606;SDS011;9433;42.678;23.360;2022-09-12T04:39:47;3.20;;;2.93;;
18606;SDS011;9433;42.678;23.360;2022-09-12T04:42:16;3.83;;;3.30;;
18606;SDS011;9433;42.678;23.360;2022-09-12T04:44:43;3.50;;;3.20;;
18606;SDS011;9433;42.678;23.360;2022-09-12T04:47:09;4.53;;;3.50;;
18606;SDS011;9433;42.678;23.360;2022-09-12T04:49:36;3.73;;;3.17;;
18606;SDS011;9433;42.678;23.360;2022-09-12T04:52:03;6.03;;;2.90;;
18606;SDS011;9433;42.678;23.360;2022-09-12T04:54:30;3.67;;;3.37;;
18606;SDS011;9433;42.678;23.360;2022-09-12T04:56:57;4.27;;;3.87;;
18606;SDS011;9433;42.678;23.360;2022-09-12T04:59:25;3.40;;;3.07;;
18606;SDS011;9433;42.678;23.360;2022-09-12T05:01:53;3.53;;;2.83;;
18606;SDS011;9433;42.678;23.360;2022-09-12T05:04:20;4.43;;;3.40;;
18606;SDS011;9433;42.678;23.360;2022-09-12T05:06:46;5.30;;;2.87;;
18606;SDS011;9433;42.678;23.360;2022-09-12T05:09:13;4.47;;;2.93;;
18606;SDS011;9433;42.678;23.360;2022-09-12T05:11:41;3.20;;;2.90;;
18606;SDS011;9433;42.678;23.360;2022-09-12T05:14:09;3.03;;;2.73;;
18606;SDS011;9433;42.678;23.360;2022-09-12T05:16:38;3.80;;;2.70;;
18606;SDS011;9433;42.678;23.360;2022-09-12T05:19:05;4.00;;;3.20;;
18606;SDS011;9433;42.678;23.360;2022-09-12T05:21:33;3.80;;;3.00;;
18606;SDS011;9433;42.678;23.360;2022-09-12T05:24:00;3.80;;;2.80;;
18606;SDS011;9433;42.678;23.360;2022-09-12T05:26:27;3.47;;;3.17;;
18606;SDS011;9433;42.678;23.360;2022-09-12T05:28:54;3.03;;;2.80;;
18606;SDS011;9433;42.678;23.360;2022-09-12T05:31:22;3.50;;;2.77;;
18606;SDS011;9433;42.678;23.360;2022-09-12T05:33:52;4.10;;;3.30;;
18606;SDS011;9433;42.678;23.360;2022-09-12T05:36:21;2.90;;;2.60;;
18606;SDS011;9433;42.678;23.360;2022-09-12T05:38:49;4.37;;;3.40;;
18606;SDS011;9433;42.678;23.360;2022-09-12T05:41:17;3.17;;;2.87;;
18606;SDS011;9433;42.678;23.360;2022-09-12T05:43:45;3.43;;;3.13;;
18606;SDS011;9433;42.678;23.360;2022-09-12T05:46:17;3.50;;;3.20;;
18606;SDS011;9433;42.678;23.360;2022-09-12T05:48:45;3.90;;;2.80;;
18606;SDS011;9433;42.678;23.360;2022-09-12T05:51:16;5.60;;;3.00;;
18606;SDS011;9433;42.678;23.360;2022-09-12T05:53:45;5.57;;;2.80;;
18606;SDS011;9433;42.678;23.360;2022-09-12T05:56:14;3.87;;;3.03;;
18606;SDS011;9433;42.678;23.360;2022-09-12T05:58:43;3.13;;;2.67;;
18606;SDS011;9433;42.678;23.360;2022-09-12T06:01:12;4.10;;;3.10;;
18606;SDS011;9433;42.678;23.360;2022-09-12T06:03:41;4.17;;;3.10;;
18606;SDS011;9433;42.678;23.360;2022-09-12T06:06:08;2.97;;;2.67;;
18606;SDS011;9433;42.678;23.360;2022-09-12T06:08:40;2.90;;;2.70;;
18606;SDS011;9433;42.678;23.360;2022-09-12T06:11:08;3.17;;;2.87;;
18606;SDS011;9433;42.678;23.360;2022-09-12T06:13:37;3.37;;;3.13;;
18606;SDS011;9433;42.678;23.360;2022-09-12T06:16:05;2.87;;;2.50;;
18606;SDS011;9433;42.678;23.360;2022-09-12T06:18:34;3.33;;;3.03;;
18606;SDS011;9433;42.678;23.360;2022-09-12T06:21:02;3.93;;;2.93;;
18606;SDS011;9433;42.678;23.360;2022-09-12T06:23:30;4.10;;;3.00;;
18606;SDS011;9433;42.678;23.360;2022-09-12T06:25:58;7.00;;;2.90;;
18606;SDS011;9433;42.678;23.360;2022-09-12T06:28:25;3.20;;;2.90;;
18606;SDS011;9433;42.678;23.360;2022-09-12T06:30:52;3.10;;;2.80;;
18606;SDS011;9433;42.678;23.360;2022-09-12T06:33:19;3.13;;;2.93;;
18606;SDS011;9433;42.678;23.360;2022-09-12T06:35:46;3.83;;;3.53;;
18606;SDS011;9433;42.678;23.360;2022-09-12T06:38:13;3.40;;;3.10;;
18606;SDS011;9433;42.678;23.360;2022-09-12T06:40:40;4.23;;;3.13;;
18606;SDS011;9433;42.678;23.360;2022-09-12T06:43:11;3.17;;;2.93;;
18606;SDS011;9433;42.678;23.360;2022-09-12T06:45:39;3.93;;;3.57;;
18606;SDS011;9433;42.678;23.360;2022-09-12T06:48:05;4.30;;;3.40;;
18606;SDS011;9433;42.678;23.360;2022-09-12T06:50:32;3.50;;;3.20;;
18606;SDS011;9433;42.678;23.360;2022-09-12T06:52:59;4.83;;;2.93;;
18606;SDS011;9433;42.678;23.360;2022-09-12T06:55:26;3.27;;;2.97;;
18606;SDS011;9433;42.678;23.360;2022-09-12T06:57:53;3.03;;;2.70;;
18606;SDS011;9433;42.678;23.360;2022-09-12T07:00:22;3.37;;;3.07;;
18606;SDS011;9433;42.678;23.360;2022-09-12T07:02:52;3.60;;;3.30;;
18606;SDS011;9433;42.678;23.360;2022-09-12T07:05:20;3.23;;;3.03;;
18606;SDS011;9433;42.678;23.360;2022-09-12T07:07:50;3.67;;;3.37;;
18606;SDS011;9433;42.678;23.360;2022-09-12T07:10:16;3.27;;;3.07;;
18606;SDS011;9433;42.678;23.360;2022-09-12T07:12:43;3.33;;;3.13;;
18606;SDS011;9433;42.678;23.360;2022-09-12T07:15:10;3.97;;;3.57;;
18606;SDS011;9433;42.678;23.360;2022-09-12T07:17:38;4.00;;;3.70;;
18606;SDS011;9433;42.678;23.360;2022-09-12T07:20:05;3.70;;;3.40;;
18606;SDS011;9433;42.678;23.360;2022-09-12T07:22:33;3.67;;;3.37;;
18606;SDS011;9433;42.678;23.360;2022-09-12T07:25:00;3.60;;;3.30;;
18606;SDS011;9433;42.678;23.360;2022-09-12T07:27:27;3.87;;;3.57;;
18606;SDS011;9433;42.678;23.360;2022-09-12T07:29:54;3.40;;;3.17;;
18606;SDS011;9433;42.678;23.360;2022-09-12T07:32:21;2.83;;;2.63;;
18606;SDS011;9433;42.678;23.360;2022-09-12T07:34:49;4.23;;;3.83;;
18606;SDS011;9433;42.678;23.360;2022-09-12T07:37:16;3.10;;;2.90;;
18606;SDS011;9433;42.678;23.360;2022-09-12T07:39:43;6.27;;;3.20;;
18606;SDS011;9433;42.678;23.360;2022-09-12T07:42:10;3.60;;;3.30;;
18606;SDS011;9433;42.678;23.360;2022-09-12T07:44:37;3.37;;;3.07;;
18606;SDS011;9433;42.678;23.360;2022-09-12T07:47:04;3.83;;;3.20;;
18606;SDS011;9433;42.678;23.360;2022-09-12T07:49:31;3.43;;;3.13;;
18606;SDS011;9433;42.678;23.360;2022-09-12T07:51:59;4.53;;;3.90;;
18606;SDS011;9433;42.678;23.360;2022-09-12T07:54:26;4.40;;;3.20;;
18606;SDS011;9433;42.678;23.360;2022-09-12T07:56:53;3.90;;;3.50;;
18606;SDS011;9433;42.678;23.360;2022-09-12T07:59:20;4.13;;;3.47;;
18606;SDS011;9433;42.678;23.360;2022-09-12T08:01:47;3.90;;;3.60;;
18606;SDS011;9433;42.678;23.360;2022-09-12T08:04:14;3.73;;;3.30;;
18606;SDS011;9433;42.678;23.360;2022-09-12T08:06:41;6.77;;;3.30;;
18606;SDS011;9433;42.678;23.360;2022-09-12T08:09:09;3.67;;;3.37;;
18606;SDS011;9433;42.678;23.360;2022-09-12T08:11:36;3.90;;;3.60;;
18606;SDS011;9433;42.678;23.360;2022-09-12T08:14:03;3.80;;;3.50;;
18606;SDS011;9433;42.678;23.360;2022-09-12T08:16:31;3.03;;;2.83;;
18606;SDS011;9433;42.678;23.360;2022-09-12T08:18:59;3.23;;;3.00;;
18606;SDS011;9433;42.678;23.360;2022-09-12T08:21:27;3.80;;;3.33;;
18606;SDS011;9433;42.678;23.360;2022-09-12T08:23:55;2.90;;;2.60;;
18606;SDS011;9433;42.678;23.360;2022-09-12T08:26:26;2.90;;;2.70;;
18606;SDS011;9433;42.678;23.360;2022-09-12T08:28:53;2.60;;;2.40;;
18606;SDS011;9433;42.678;23.360;2022-09-12T08:31:20;3.13;;;2.83;;
18606;SDS011;9433;42.678;23.360;2022-09-12T08:33:49;2.87;;;2.67;;
18606;SDS011;9433;42.678;23.360;2022-09-12T08:36:16;3.00;;;2.80;;
18606;SDS011;9433;42.678;23.360;2022-09-12T08:38:47;3.33;;;3.10;;
18606;SDS011;9433;42.678;23.360;2022-09-12T08:41:19;3.03;;;2.83;;
18606;SDS011;9433;42.678;23.360;2022-09-12T08:43:58;4.33;;;2.83;;
18606;SDS011;9433;42.678;23.360;2022-09-12T08:46:37;2.87;;;2.67;;
18606;SDS011;9433;42.678;23.360;2022-09-12T08:49:11;2.80;;;2.60;;
18606;SDS011;9433;42.678;23.360;2022-09-12T08:51:43;2.77;;;2.57;;
18606;SDS011;9433;42.678;23.360;2022-09-12T08:54:12;2.93;;;2.70;;
18606;SDS011;9433;42.678;23.360;2022-09-12T08:56:44;3.30;;;3.10;;
18606;SDS011;9433;42.678;23.360;2022-09-12T08:59:14;2.70;;;2.50;;
18606;SDS011;9433;42.678;23.360;2022-09-12T09:01:42;3.87;;;2.43;;
18606;SDS011;9433;42.678;23.360;2022-09-12T09:04:16;2.70;;;2.50;;
18606;SDS011;9433;42.678;23.360;2022-09-12T09:06:57;2.67;;;2.47;;
18606;SDS011;9433;42.678;23.360;2022-09-12T09:09:37;2.90;;;2.60;;
18606;SDS011;9433;42.678;23.360;2022-09-12T09:12:15;2.60;;;2.40;;
18606;SDS011;9433;42.678;23.360;2022-09-12T09:14:57;2.57;;;2.37;;
18606;SDS011;9433;42.678;23.360;2022-09-12T09:17:50;3.10;;;2.80;;
18606;SDS011;9433;42.678;23.360;2022-09-12T09:20:23;2.87;;;2.67;;
18606;SDS011;9433;42.678;23.360;2022-09-12T09:22:55;3.80;;;2.90;;
18606;SDS011;9433;42.678;23.360;2022-09-12T09:25:32;3.17;;;2.87;;
18606;SDS011;9433;42.678;23.360;2022-09-12T09:28:08;3.30;;;3.00;;
18606;SDS011;9433;42.678;23.360;2022-09-12T09:30:42;3.20;;;3.00;;
18606;SDS011;9433;42.678;23.360;2022-09-12T09:33:12;2.93;;;2.73;;
18606;SDS011;9433;42.678;23.360;2022-09-12T09:35:45;3.40;;;2.70;;
18606;SDS011;9433;42.678;23.360;2022-09-12T09:38:21;2.67;;;2.47;;
18606;SDS011;9433;42.678;23.360;2022-09-12T09:40:55;3.17;;;2.87;;
18606;SDS011;9433;42.678;23.360;2022-09-12T09:43:32;2.97;;;2.77;;
18606;SDS011;9433;42.678;23.360;2022-09-12T09:46:00;3.00;;;2.80;;
18606;SDS011;9433;42.678;23.360;2022-09-12T09:48:31;2.90;;;2.70;;
18606;SDS011;9433;42.678;23.360;2022-09-12T09:51:01;3.30;;;3.00;;
18606;SDS011;9433;42.678;23.360;2022-09-12T09:53:32;2.50;;;2.33;;
18606;SDS011;9433;42.678;23.360;2022-09-12T09:56:05;2.87;;;2.63;;
18606;SDS011;9433;42.678;23.360;2022-09-12T09:58:35;2.60;;;2.40;;
18606;SDS011;9433;42.678;23.360;2022-09-12T10:01:04;2.60;;;2.40;;
18606;SDS011;9433;42.678;23.360;2022-09-12T10:03:37;5.23;;;2.50;;
18606;SDS011;9433;42.678;23.360;2022-09-12T10:06:06;2.70;;;2.50;;
18606;SDS011;9433;42.678;23.360;2022-09-12T10:08:47;2.73;;;2.53;;
18606;SDS011;9433;42.678;23.360;2022-09-12T10:11:17;2.73;;;2.53;;
18606;SDS011;9433;42.678;23.360;2022-09-12T10:13:51;3.10;;;2.60;;
18606;SDS011;9433;42.678;23.360;2022-09-12T10:16:22;2.30;;;2.10;;
18606;SDS011;9433;42.678;23.360;2022-09-12T10:18:52;2.93;;;2.73;;
18606;SDS011;9433;42.678;23.360;2022-09-12T10:21:22;2.67;;;2.47;;
18606;SDS011;9433;42.678;23.360;2022-09-12T10:24:05;3.47;;;3.17;;
18606;SDS011;9433;42.678;23.360;2022-09-12T10:26:44;3.25;;;3.05;;
18606;SDS011;9433;42.678;23.360;2022-09-12T10:29:15;3.37;;;3.00;;
18606;SDS011;9433;42.678;23.360;2022-09-12T10:31:49;2.70;;;2.50;;
18606;SDS011;9433;42.678;23.360;2022-09-12T10:34:20;3.05;;;2.78;;
18606;SDS011;9433;42.678;23.360;2022-09-12T10:36:52;3.17;;;2.88;;
18606;SDS011;9433;42.678;23.360;2022-09-12T10:39:24;3.20;;;3.00;;
18606;SDS011;9433;42.678;23.360;2022-09-12T10:41:51;4.60;;;3.17;;
18606;SDS011;9433;42.678;23.360;2022-09-12T10:44:23;3.15;;;2.85;;
18606;SDS011;9433;42.678;23.360;2022-09-12T10:46:53;3.40;;;3.10;;
18606;SDS011;9433;42.678;23.360;2022-09-12T10:49:22;2.85;;;2.40;;
18606;SDS011;9433;42.678;23.360;2022-09-12T10:51:51;2.75;;;2.50;;
18606;SDS011;9433;42.678;23.360;2022-09-12T10:54:20;2.67;;;2.40;;
18606;SDS011;9433;42.678;23.360;2022-09-12T10:56:52;2.55;;;2.35;;
18606;SDS011;9433;42.678;23.360;2022-09-12T10:59:43;3.20;;;2.88;;
18606;SDS011;9433;42.678;23.360;2022-09-12T11:02:27;2.90;;;2.50;;
18606;SDS011;9433;42.678;23.360;2022-09-12T11:04:59;3.63;;;2.55;;
18606;SDS011;9433;42.678;23.360;2022-09-12T11:07:35;3.38;;;3.08;;
18606;SDS011;9433;42.678;23.360;2022-09-12T11:12:58;3.53;;;3.22;;
18606;SDS011;9433;42.678;23.360;2022-09-12T11:15:48;3.15;;;2.88;;
18606;SDS011;9433;42.678;23.360;2022-09-12T11:18:29;3.35;;;2.80;;
18606;SDS011;9433;42.678;23.360;2022-09-12T11:21:13;3.92;;;3.40;;
18606;SDS011;9433;42.678;23.360;2022-09-12T11:23:55;4.50;;;2.90;;
18606;SDS011;9433;42.678;23.360;2022-09-12T11:26:39;3.53;;;3.22;;
18606;SDS011;9433;42.678;23.360;2022-09-12T11:29:20;3.42;;;3.00;;
18606;SDS011;9433;42.678;23.360;2022-09-12T11:32:02;2.38;;;2.17;;
18606;SDS011;9433;42.678;23.360;2022-09-12T11:34:56;3.03;;;2.83;;
18606;SDS011;9433;42.678;23.360;2022-09-12T11:37:44;3.15;;;2.88;;
18606;SDS011;9433;42.678;23.360;2022-09-12T11:40:26;3.00;;;2.75;;
18606;SDS011;9433;42.678;23.360;2022-09-12T11:42:58;2.65;;;2.45;;
18606;SDS011;9433;42.678;23.360;2022-09-12T11:45:33;3.45;;;2.72;;
18606;SDS011;9433;42.678;23.360;2022-09-12T11:48:03;3.03;;;2.47;;
18606;SDS011;9433;42.678;23.360;2022-09-12T11:50:40;2.90;;;2.53;;
18606;SDS011;9433;42.678;23.360;2022-09-12T11:53:10;2.75;;;2.55;;
18606;SDS011;9433;42.678;23.360;2022-09-12T11:55:49;4.50;;;2.55;;
18606;SDS011;9433;42.678;23.360;2022-09-12T11:58:21;3.00;;;2.80;;
18606;SDS011;9433;42.678;23.360;2022-09-12T12:00:53;2.50;;;2.30;;
18606;SDS011;9433;42.678;23.360;2022-09-12T12:03:25;3.25;;;2.78;;
18606;SDS011;9433;42.678;23.360;2022-09-12T12:06:00;2.85;;;2.65;;
18606;SDS011;9433;42.678;23.360;2022-09-12T12:08:30;2.53;;;2.33;;
18606;SDS011;9433;42.678;23.360;2022-09-12T12:10:58;2.60;;;2.40;;
18606;SDS011;9433;42.678;23.360;2022-09-12T12:13:27;2.95;;;2.22;;
18606;SDS011;9433;42.678;23.360;2022-09-12T12:15:58;2.30;;;2.10;;
18606;SDS011;9433;42.678;23.360;2022-09-12T12:18:28;3.00;;;2.70;;
18606;SDS011;9433;42.678;23.360;2022-09-12T12:21:14;3.20;;;2.58;;
18606;SDS011;9433;42.678;23.360;2022-09-12T12:24:03;2.30;;;2.10;;
18606;SDS011;9433;42.678;23.360;2022-09-12T12:26:52;1.73;;;1.63;;
18606;SDS011;9433;42.678;23.360;2022-09-12T12:29:35;1.70;;;1.52;;
18606;SDS011;9433;42.678;23.360;2022-09-12T12:32:23;2.00;;;1.75;;
18606;SDS011;9433;42.678;23.360;2022-09-12T12:35:00;1.58;;;1.48;;
18606;SDS011;9433;42.678;23.360;2022-09-12T12:37:53;1.80;;;1.70;;
18606;SDS011;9433;42.678;23.360;2022-09-12T12:40:23;2.72;;;2.38;;
18606;SDS011;9433;42.678;23.360;2022-09-12T12:43:02;2.10;;;2.00;;
18606;SDS011;9433;42.678;23.360;2022-09-12T12:48:44;1.95;;;1.85;;
18606;SDS011;9433;42.678;23.360;2022-09-12T12:51:30;2.15;;;2.05;;
18606;SDS011;9433;42.678;23.360;2022-09-12T12:54:04;2.58;;;2.20;;
18606;SDS011;9433;42.678;23.360;2022-09-12T12:56:59;2.08;;;1.98;;
18606;SDS011;9433;42.678;23.360;2022-09-12T12:59:30;3.50;;;2.65;;
18606;SDS011;9433;42.678;23.360;2022-09-12T13:01:57;2.60;;;2.40;;
18606;SDS011;9433;42.678;23.360;2022-09-12T13:04:26;4.15;;;3.83;;
18606;SDS011;9433;42.678;23.360;2022-09-12T13:06:57;2.60;;;2.40;;
18606;SDS011;9433;42.678;23.360;2022-09-12T13:09:30;2.60;;;2.25;;
18606;SDS011;9433;42.678;23.360;2022-09-12T13:12:02;2.03;;;1.92;;
18606;SDS011;9433;42.678;23.360;2022-09-12T13:17:20;2.53;;;2.42;;
18606;SDS011;9433;42.678;23.360;2022-09-12T13:19:52;2.55;;;2.45;;
18606;SDS011;9433;42.678;23.360;2022-09-12T13:22:36;3.50;;;3.20;;
18606;SDS011;9433;42.678;23.360;2022-09-12T13:25:17;3.00;;;2.70;;
18606;SDS011;9433;42.678;23.360;2022-09-12T13:27:55;2.75;;;2.55;;
18606;SDS011;9433;42.678;23.360;2022-09-12T13:30:23;3.00;;;2.77;;
18606;SDS011;9433;42.678;23.360;2022-09-12T13:32:49;3.40;;;3.10;;
18606;SDS011;9433;42.678;23.360;2022-09-12T13:35:20;3.50;;;2.63;;
18606;SDS011;9433;42.678;23.360;2022-09-12T13:37:54;2.92;;;2.72;;
18606;SDS011;9433;42.678;23.360;2022-09-12T13:40:35;2.78;;;2.63;;
18606;SDS011;9433;42.678;23.360;2022-09-12T13:43:12;2.72;;;2.50;;
18606;SDS011;9433;42.678;23.360;2022-09-12T13:45:41;2.45;;;2.28;;
18606;SDS011;9433;42.678;23.360;2022-09-12T13:48:12;2.47;;;2.35;;
18606;SDS011;9433;42.678;23.360;2022-09-12T13:50:45;3.05;;;2.85;;
18606;SDS011;9433;42.678;23.360;2022-09-12T13:53:17;2.13;;;2.03;;
18606;SDS011;9433;42.678;23.360;2022-09-12T13:55:48;2.72;;;2.63;;
18606;SDS011;9433;42.678;23.360;2022-09-12T13:58:21;2.80;;;2.60;;
18606;SDS011;9433;42.678;23.360;2022-09-12T14:01:04;3.10;;;2.90;;
18606;SDS011;9433;42.678;23.360;2022-09-12T14:03:32;2.90;;;2.70;;
18606;SDS011;9433;42.678;23.360;2022-09-12T14:06:21;3.30;;;3.10;;
18606;SDS011;9433;42.678;23.360;2022-09-12T14:08:49;3.72;;;3.42;;
18606;SDS011;9433;42.678;23.360;2022-09-12T14:11:22;3.27;;;3.07;;
18606;SDS011;9433;42.678;23.360;2022-09-12T14:13:51;3.20;;;3.00;;
18606;SDS011;9433;42.678;23.360;2022-09-12T14:16:20;3.20;;;3.00;;
18606;SDS011;9433;42.678;23.360;2022-09-12T14:18:51;3.40;;;3.20;;
18606;SDS011;9433;42.678;23.360;2022-09-12T14:21:23;3.10;;;2.90;;
18606;SDS011;9433;42.678;23.360;2022-09-12T14:23:58;3.03;;;2.80;;
18606;SDS011;9433;42.678;23.360;2022-09-12T14:26:27;3.30;;;3.10;;
18606;SDS011;9433;42.678;23.360;2022-09-12T14:28:59;3.70;;;3.40;;
18606;SDS011;9433;42.678;23.360;2022-09-12T14:31:28;3.00;;;2.80;;
18606;SDS011;9433;42.678;23.360;2022-09-12T14:34:07;3.87;;;3.57;;
18606;SDS011;9433;42.678;23.360;2022-09-12T14:36:35;3.53;;;3.23;;
18606;SDS011;9433;42.678;23.360;2022-09-12T14:39:13;3.83;;;3.53;;
18606;SDS011;9433;42.678;23.360;2022-09-12T14:41:45;3.43;;;3.23;;
18606;SDS011;9433;42.678;23.360;2022-09-12T14:44:15;3.47;;;3.23;;
18606;SDS011;9433;42.678;23.360;2022-09-12T14:46:44;3.23;;;3.03;;
18606;SDS011;9433;42.678;23.360;2022-09-12T14:49:14;4.00;;;3.70;;
18606;SDS011;9433;42.678;23.360;2022-09-12T14:51:46;3.17;;;2.97;;
18606;SDS011;9433;42.678;23.360;2022-09-12T14:54:35;3.77;;;3.47;;
18606;SDS011;9433;42.678;23.360;2022-09-12T14:57:13;2.93;;;2.73;;
18606;SDS011;9433;42.678;23.360;2022-09-12T15:00:14;3.93;;;3.63;;
18606;SDS011;9433;42.678;23.360;2022-09-12T15:02:45;3.10;;;2.90;;
18606;SDS011;9433;42.678;23.360;2022-09-12T15:05:14;3.10;;;2.90;;
18606;SDS011;9433;42.678;23.360;2022-09-12T15:07:51;3.37;;;3.17;;
18606;SDS011;9433;42.678;23.360;2022-09-12T15:10:22;3.23;;;3.03;;
18606;SDS011;9433;42.678;23.360;2022-09-12T15:13:07;3.50;;;3.20;;
18606;SDS011;9433;42.678;23.360;2022-09-12T15:15:38;3.60;;;3.30;;
18606;SDS011;9433;42.678;23.360;2022-09-12T15:18:07;3.53;;;3.23;;
18606;SDS011;9433;42.678;23.360;2022-09-12T15:20:34;3.90;;;3.60;;
18606;SDS011;9433;42.678;23.360;2022-09-12T15:23:02;4.00;;;3.70;;
18606;SDS011;9433;42.678;23.360;2022-09-12T15:25:30;3.57;;;3.27;;
18606;SDS011;9433;42.678;23.360;2022-09-12T15:27:56;3.40;;;3.10;;
18606;SDS011;9433;42.678;23.360;2022-09-12T15:30:25;4.63;;;3.53;;
18606;SDS011;9433;42.678;23.360;2022-09-12T15:32:51;3.83;;;3.53;;